createdAt,value
2023-05-02T00:00:44.356Z,34.64
2023-05-02T00:01:44.226Z,34.62
2023-05-02T00:02:44.390Z,34.59
2023-05-02T00:03:44.280Z,34.59
2023-05-02T00:04:44.197Z,34.58
2023-05-02T00:05:44.406Z,34.58
2023-05-02T00:06:44.173Z,34.61
2023-05-02T00:07:44.148Z,34.64
2023-05-02T00:08:44.153Z,34.59
2023-05-02T00:09:44.116Z,34.57
2023-05-02T00:10:44.341Z,34.58
2023-05-02T00:11:44.119Z,34.57
2023-05-02T00:12:44.078Z,34.60
2023-05-02T00:13:44.098Z,34.61
2023-05-02T00:14:44.071Z,34.58
2023-05-02T00:15:44.363Z,34.60
2023-05-02T00:16:44.125Z,34.56
2023-05-02T00:17:44.133Z,34.54
2023-05-02T00:18:44.068Z,34.57
2023-05-02T00:19:44.074Z,34.59
2023-05-02T00:20:44.349Z,34.57
2023-05-02T00:21:44.040Z,34.56
2023-05-02T00:22:44.068Z,34.59
2023-05-02T00:23:44.035Z,34.56
2023-05-02T00:24:44.047Z,34.60
2023-05-02T00:25:44.331Z,34.58
2023-05-02T00:26:44.006Z,34.58
2023-05-02T00:27:44.032Z,34.55
2023-05-02T00:28:44.038Z,34.53
2023-05-02T00:29:44.102Z,34.58
2023-05-02T00:30:44.391Z,34.56
2023-05-02T00:31:44.284Z,34.56
2023-05-02T00:32:44.350Z,34.56
2023-05-02T00:33:44.303Z,34.56
2023-05-02T00:34:44.364Z,34.55
2023-05-02T00:35:44.431Z,34.59
2023-05-02T00:36:44.445Z,34.58
2023-05-02T00:37:44.524Z,34.57
2023-05-02T00:38:44.576Z,34.52
2023-05-02T00:39:44.615Z,34.54
2023-05-02T00:40:44.714Z,34.59
2023-05-02T00:41:44.753Z,34.54
2023-05-02T00:42:44.812Z,34.56
2023-05-02T00:43:44.852Z,34.52
2023-05-02T00:44:44.890Z,34.54
2023-05-02T00:45:45.359Z,34.56
2023-05-02T00:46:45.127Z,34.56
2023-05-02T00:47:45.097Z,34.56
2023-05-02T00:48:45.153Z,34.56
2023-05-02T00:49:45.137Z,34.56
2023-05-02T00:50:45.348Z,34.57
2023-05-02T00:51:45.282Z,34.54
2023-05-02T00:52:45.310Z,34.54
2023-05-02T00:53:45.429Z,34.53
2023-05-02T00:54:45.426Z,34.52
2023-05-02T00:55:45.873Z,34.54
2023-05-02T00:56:45.524Z,34.49
2023-05-02T00:57:45.582Z,34.51
2023-05-02T00:58:45.616Z,34.53
2023-05-02T00:59:45.701Z,34.52
2023-05-02T01:00:45.762Z,34.53
2023-05-02T01:01:45.859Z,34.51
2023-05-02T01:02:45.957Z,34.53
2023-05-02T01:03:45.947Z,34.52
2023-05-02T01:04:45.994Z,34.53
2023-05-02T01:05:46.038Z,34.57
2023-05-02T01:06:46.222Z,34.53
2023-05-02T01:07:46.151Z,34.52
2023-05-02T01:08:46.164Z,34.52
2023-05-02T01:09:46.229Z,34.55
2023-05-02T01:10:46.312Z,34.53
2023-05-02T01:11:46.339Z,34.53
2023-05-02T01:12:46.397Z,34.50
2023-05-02T01:13:46.455Z,34.57
2023-05-02T01:14:46.520Z,34.56
2023-05-02T01:15:46.619Z,34.56
2023-05-02T01:16:46.621Z,34.52
2023-05-02T01:17:46.743Z,34.52
2023-05-02T01:18:46.721Z,34.53
2023-05-02T01:19:46.773Z,34.54
2023-05-02T01:20:46.846Z,34.54
2023-05-02T01:21:47.372Z,34.54
2023-05-02T01:22:46.971Z,34.53
2023-05-02T01:23:47.045Z,34.51
2023-05-02T01:24:47.082Z,34.56
2023-05-02T01:25:47.152Z,34.51
2023-05-02T01:26:47.192Z,34.54
2023-05-02T01:27:47.238Z,34.49
2023-05-02T01:28:47.301Z,34.51
2023-05-02T01:29:47.353Z,34.53
2023-05-02T01:30:47.435Z,34.52
2023-05-02T01:31:47.927Z,34.53
2023-05-02T01:32:47.563Z,34.55
2023-05-02T01:33:47.582Z,34.52
2023-05-02T01:34:47.659Z,34.52
2023-05-02T01:35:47.712Z,34.56
2023-05-02T01:36:47.893Z,34.51
2023-05-02T01:37:47.829Z,34.53
2023-05-02T01:38:47.919Z,34.54
2023-05-02T01:39:47.987Z,34.53
2023-05-02T01:40:47.983Z,34.51
2023-05-02T01:41:48.106Z,34.51
2023-05-02T01:42:48.139Z,34.49
2023-05-02T01:43:48.209Z,34.50
2023-05-02T01:44:48.261Z,34.50
2023-05-02T01:45:48.328Z,34.49
2023-05-02T01:46:48.440Z,34.49
2023-05-02T01:47:48.494Z,34.53
2023-05-02T01:48:48.485Z,34.49
2023-05-02T01:49:48.529Z,34.49
2023-05-02T01:50:48.575Z,34.48
2023-05-02T01:51:48.621Z,34.50
2023-05-02T01:52:48.690Z,34.50
2023-05-02T01:53:48.732Z,34.48
2023-05-02T01:54:48.793Z,34.47
2023-05-02T01:55:48.867Z,34.46
2023-05-02T01:56:48.926Z,34.47
2023-05-02T01:57:48.954Z,34.51
2023-05-02T01:58:49.035Z,34.48
2023-05-02T01:59:49.112Z,34.50
2023-05-02T02:00:49.202Z,34.49
2023-05-02T02:01:49.410Z,34.49
2023-05-02T02:02:49.313Z,34.48
2023-05-02T02:03:49.372Z,34.46
2023-05-02T02:04:49.442Z,34.50
2023-05-02T02:05:49.459Z,34.48
2023-05-02T02:06:49.555Z,34.49
2023-05-02T02:07:49.565Z,34.50
2023-05-02T02:08:49.580Z,34.49
2023-05-02T02:09:49.654Z,34.50
2023-05-02T02:10:49.737Z,34.49
2023-05-02T02:11:49.765Z,34.49
2023-05-02T02:12:49.813Z,34.50
2023-05-02T02:13:49.890Z,34.46
2023-05-02T02:14:49.981Z,34.49
2023-05-02T02:15:50.006Z,34.46
2023-05-02T02:16:50.155Z,34.47
2023-05-02T02:17:50.159Z,34.46
2023-05-02T02:18:50.168Z,34.48
2023-05-02T02:19:50.205Z,34.46
2023-05-02T02:20:50.280Z,34.48
2023-05-02T02:21:50.344Z,34.47
2023-05-02T02:22:50.378Z,34.45
2023-05-02T02:23:50.439Z,34.47
2023-05-02T02:24:51.314Z,34.46
2023-05-02T02:25:50.665Z,34.46
2023-05-02T02:26:50.694Z,34.46
2023-05-02T02:27:50.733Z,34.49
2023-05-02T02:28:50.819Z,34.48
2023-05-02T02:29:50.861Z,34.48
2023-05-02T02:30:50.978Z,34.45
2023-05-02T02:31:51.008Z,34.48
2023-05-02T02:32:51.187Z,34.47
2023-05-02T02:33:51.075Z,34.45
2023-05-02T02:34:51.146Z,34.47
2023-05-02T02:35:51.244Z,34.47
2023-05-02T02:36:51.410Z,34.46
2023-05-02T02:37:51.298Z,34.46
2023-05-02T02:38:51.358Z,34.47
2023-05-02T02:39:51.410Z,34.46
2023-05-02T02:40:51.470Z,34.46
2023-05-02T02:41:51.537Z,34.45
2023-05-02T02:42:51.613Z,34.46
2023-05-02T02:43:51.672Z,34.44
2023-05-02T02:44:51.720Z,34.43
2023-05-02T02:45:51.775Z,34.44
2023-05-02T02:46:51.823Z,34.43
2023-05-02T02:47:51.984Z,34.42
2023-05-02T02:48:51.947Z,34.42
2023-05-02T02:49:52.020Z,34.43
2023-05-02T02:50:52.061Z,34.42
2023-05-02T02:51:52.406Z,34.45
2023-05-02T02:52:52.188Z,34.46
2023-05-02T02:53:52.232Z,34.40
2023-05-02T02:54:52.284Z,34.42
2023-05-02T02:55:52.352Z,34.41
2023-05-02T02:56:52.401Z,34.41
2023-05-02T02:57:52.461Z,34.45
2023-05-02T02:58:52.514Z,34.42
2023-05-02T02:59:52.556Z,34.42
2023-05-02T03:00:52.611Z,34.42
2023-05-02T03:01:53.024Z,34.42
2023-05-02T03:02:52.754Z,34.42
2023-05-02T03:03:52.842Z,34.40
2023-05-02T03:04:52.886Z,34.45
2023-05-02T03:05:52.913Z,34.44
2023-05-02T03:06:53.060Z,34.42
2023-05-02T03:07:53.045Z,34.40
2023-05-02T03:08:53.068Z,34.42
2023-05-02T03:09:53.147Z,34.39
2023-05-02T03:10:53.218Z,34.44
2023-05-02T03:11:53.408Z,34.40
2023-05-02T03:12:53.305Z,34.42
2023-05-02T03:13:53.397Z,34.42
2023-05-02T03:14:53.429Z,34.39
2023-05-02T03:15:53.505Z,34.40
2023-05-02T03:16:53.572Z,34.41
2023-05-02T03:17:53.636Z,34.37
2023-05-02T03:18:53.630Z,34.42
2023-05-02T03:19:53.694Z,34.41
2023-05-02T03:20:53.808Z,34.40
2023-05-02T03:21:53.825Z,34.43
2023-05-02T03:22:53.887Z,34.41
2023-05-02T03:23:53.940Z,34.40
2023-05-02T03:24:54.007Z,34.39
2023-05-02T03:25:54.035Z,34.39
2023-05-02T03:26:54.144Z,34.42
2023-05-02T03:27:54.172Z,34.38
2023-05-02T03:28:54.231Z,34.38
2023-05-02T03:29:54.272Z,34.39
2023-05-02T03:30:54.350Z,34.39
2023-05-02T03:31:54.420Z,34.38
2023-05-02T03:32:54.502Z,34.38
2023-05-02T03:33:54.585Z,34.37
2023-05-02T03:34:54.581Z,34.37
2023-05-02T03:35:54.634Z,34.40
2023-05-02T03:36:54.663Z,34.36
2023-05-02T03:37:54.750Z,34.40
2023-05-02T03:38:54.799Z,34.36
2023-05-02T03:39:54.858Z,34.34
2023-05-02T03:40:54.928Z,34.37
2023-05-02T03:41:54.980Z,34.34
2023-05-02T03:42:55.014Z,34.36
2023-05-02T03:43:55.097Z,34.35
2023-05-02T03:44:55.171Z,34.37
2023-05-02T03:45:55.186Z,34.36
2023-05-02T03:46:55.518Z,34.36
2023-05-02T03:47:55.456Z,34.35
2023-05-02T03:48:55.365Z,34.39
2023-05-02T03:49:55.443Z,34.38
2023-05-02T03:50:55.499Z,34.36
2023-05-02T03:51:55.571Z,34.37
2023-05-02T03:52:55.630Z,34.38
2023-05-02T03:53:55.644Z,34.35
2023-05-02T03:54:55.740Z,34.37
2023-05-02T03:55:55.788Z,34.37
2023-05-02T03:56:55.833Z,34.38
2023-05-02T03:57:55.892Z,34.37
2023-05-02T03:58:55.969Z,34.37
2023-05-02T03:59:56.005Z,34.35
2023-05-02T04:00:56.072Z,34.34
2023-05-02T04:01:56.152Z,34.34
2023-05-02T04:02:56.310Z,34.39
2023-05-02T04:03:56.282Z,34.36
2023-05-02T04:04:56.294Z,34.35
2023-05-02T04:05:56.341Z,34.35
2023-05-02T04:06:56.450Z,34.32
2023-05-02T04:07:56.468Z,34.34
2023-05-02T04:08:56.496Z,34.35
2023-05-02T04:09:56.579Z,34.37
2023-05-02T04:10:56.613Z,34.34
2023-05-02T04:11:56.699Z,34.35
2023-05-02T04:12:56.753Z,34.32
2023-05-02T04:13:56.818Z,34.34
2023-05-02T04:14:56.880Z,34.36
2023-05-02T04:15:56.941Z,34.34
2023-05-02T04:16:57.534Z,34.34
2023-05-02T04:17:57.072Z,34.31
2023-05-02T04:18:57.128Z,34.31
2023-05-02T04:19:57.229Z,34.33
2023-05-02T04:20:57.218Z,34.33
2023-05-02T04:21:57.273Z,34.31
2023-05-02T04:22:57.327Z,34.31
2023-05-02T04:23:57.388Z,34.30
2023-05-02T04:24:57.463Z,34.31
2023-05-02T04:25:57.507Z,34.30
2023-05-02T04:26:57.963Z,34.31
2023-05-02T04:27:57.629Z,34.28
2023-05-02T04:28:57.671Z,34.32
2023-05-02T04:29:58.005Z,34.30
2023-05-02T04:30:57.920Z,34.31
2023-05-02T04:31:57.852Z,34.29
2023-05-02T04:32:57.961Z,34.30
2023-05-02T04:33:57.951Z,34.29
2023-05-02T04:34:58.031Z,34.30
2023-05-02T04:35:58.085Z,34.28
2023-05-02T04:36:58.165Z,34.28
2023-05-02T04:37:58.218Z,34.30
2023-05-02T04:38:58.298Z,34.30
2023-05-02T04:39:58.441Z,34.28
2023-05-02T04:40:58.387Z,34.29
2023-05-02T04:41:58.469Z,34.28
2023-05-02T04:42:58.529Z,34.30
2023-05-02T04:43:58.593Z,34.28
2023-05-02T04:44:58.620Z,34.32
2023-05-02T04:45:58.698Z,34.31
2023-05-02T04:46:58.758Z,34.29
2023-05-02T04:47:58.883Z,34.26
2023-05-02T04:48:58.864Z,34.28
2023-05-02T04:49:59.164Z,34.32
2023-05-02T04:50:58.977Z,34.33
2023-05-02T04:51:59.089Z,34.30
2023-05-02T04:52:59.101Z,34.30
2023-05-02T04:53:59.166Z,34.31
2023-05-02T04:54:59.243Z,34.31
2023-05-02T04:55:59.340Z,34.30
2023-05-02T04:56:59.351Z,34.31
2023-05-02T04:57:59.406Z,34.30
2023-05-02T04:58:59.478Z,34.30
2023-05-02T04:59:59.893Z,34.32
2023-05-02T05:00:59.608Z,34.32
2023-05-02T05:01:59.778Z,34.29
2023-05-02T05:03:01.726Z,34.30
2023-05-02T05:04:00.007Z,34.35
2023-05-02T05:04:59.951Z,34.32
2023-05-02T05:05:59.980Z,34.32
2023-05-02T05:07:00.113Z,34.31
2023-05-02T05:08:00.011Z,34.32
2023-05-02T05:09:00.084Z,34.34
2023-05-02T05:10:00.561Z,34.34
2023-05-02T05:11:00.181Z,34.36
2023-05-02T05:12:00.470Z,34.31
2023-05-02T05:13:00.290Z,34.35
2023-05-02T05:14:00.340Z,34.37
2023-05-02T05:15:00.386Z,34.37
2023-05-02T05:16:00.471Z,34.36
2023-05-02T05:17:00.527Z,34.38
2023-05-02T05:18:00.618Z,34.35
2023-05-02T05:19:00.601Z,34.34
2023-05-02T05:20:00.923Z,34.34
2023-05-02T05:21:00.719Z,34.37
2023-05-02T05:22:00.778Z,34.32
2023-05-02T05:23:01.463Z,34.37
2023-05-02T05:24:00.901Z,34.33
2023-05-02T05:25:00.938Z,34.33
2023-05-02T05:26:00.992Z,34.32
2023-05-02T05:27:01.055Z,34.36
2023-05-02T05:28:01.100Z,34.32
2023-05-02T05:29:01.114Z,34.34
2023-05-02T05:30:01.557Z,34.35
2023-05-02T05:31:01.252Z,34.31
2023-05-02T05:32:01.446Z,34.31
2023-05-02T05:33:01.428Z,34.30
2023-05-02T05:34:01.505Z,34.35
2023-05-02T05:35:01.470Z,34.34
2023-05-02T05:36:01.518Z,34.36
2023-05-02T05:37:01.614Z,34.35
2023-05-02T05:38:01.674Z,34.36
2023-05-02T05:39:01.715Z,34.32
2023-05-02T05:40:02.141Z,34.32
2023-05-02T05:41:01.863Z,34.33
2023-05-02T05:42:01.910Z,34.29
2023-05-02T05:43:01.988Z,34.32
2023-05-02T05:44:02.046Z,34.35
2023-05-02T05:45:02.118Z,34.30
2023-05-02T05:46:02.125Z,34.30
2023-05-02T05:47:02.222Z,34.31
2023-05-02T05:48:02.290Z,34.31
2023-05-02T05:49:02.287Z,34.33
2023-05-02T05:50:02.792Z,34.32
2023-05-02T05:51:02.415Z,34.27
2023-05-02T05:52:02.485Z,34.29
2023-05-02T05:53:02.518Z,34.30
2023-05-02T05:54:02.563Z,34.30
2023-05-02T05:55:02.649Z,34.28
2023-05-02T05:56:02.689Z,34.27
2023-05-02T05:57:02.801Z,34.27
2023-05-02T05:58:02.813Z,34.25
2023-05-02T05:59:02.874Z,34.27
2023-05-02T06:00:03.211Z,34.28
2023-05-02T06:01:03.041Z,34.22
2023-05-02T06:02:03.527Z,34.22
2023-05-02T06:03:03.222Z,34.24
2023-05-02T06:04:03.379Z,34.25
2023-05-02T06:05:03.531Z,34.23
2023-05-02T06:06:03.341Z,34.22
2023-05-02T06:07:03.352Z,34.23
2023-05-02T06:08:03.502Z,34.23
2023-05-02T06:09:03.471Z,34.23
2023-05-02T06:10:03.575Z,34.20
2023-05-02T06:11:03.547Z,34.20
2023-05-02T06:12:03.616Z,34.19
2023-05-02T06:13:03.736Z,34.23
2023-05-02T06:14:03.737Z,34.22
2023-05-02T06:15:03.839Z,34.21
2023-05-02T06:16:03.972Z,34.22
2023-05-02T06:17:03.912Z,34.19
2023-05-02T06:18:04.067Z,34.19
2023-05-02T06:19:04.072Z,34.17
2023-05-02T06:20:04.169Z,34.18
2023-05-02T06:21:04.178Z,34.17
2023-05-02T06:22:04.241Z,34.16
2023-05-02T06:23:04.309Z,34.16
2023-05-02T06:24:04.368Z,34.16
2023-05-02T06:25:04.428Z,34.15
2023-05-02T06:26:04.459Z,34.14
2023-05-02T06:27:04.536Z,34.16
2023-05-02T06:28:04.993Z,34.15
2023-05-02T06:29:04.655Z,34.15
2023-05-02T06:30:04.711Z,34.16
2023-05-02T06:31:04.834Z,34.13
2023-05-02T06:32:04.871Z,34.12
2023-05-02T06:33:05.045Z,34.14
2023-05-02T06:34:04.953Z,34.13
2023-05-02T06:35:05.012Z,34.14
2023-05-02T06:36:05.057Z,34.12
2023-05-02T06:37:05.129Z,34.14
2023-05-02T06:38:05.496Z,34.12
2023-05-02T06:39:05.223Z,34.09
2023-05-02T06:40:05.286Z,34.10
2023-05-02T06:41:05.357Z,34.11
2023-05-02T06:42:05.385Z,34.12
2023-05-02T06:43:05.478Z,34.11
2023-05-02T06:44:05.584Z,34.13
2023-05-02T06:45:05.610Z,34.10
2023-05-02T06:46:05.663Z,34.12
2023-05-02T06:47:05.725Z,34.13
2023-05-02T06:48:05.832Z,34.11
2023-05-02T06:49:05.811Z,34.15
2023-05-02T06:50:05.931Z,34.15
2023-05-02T06:51:05.926Z,34.13
2023-05-02T06:52:06.021Z,34.11
2023-05-02T06:53:06.058Z,34.13
2023-05-02T06:54:06.106Z,34.12
2023-05-02T06:55:06.189Z,34.13
2023-05-02T06:56:06.242Z,34.12
2023-05-02T06:57:06.306Z,34.12
2023-05-02T06:58:06.357Z,34.14
2023-05-02T06:59:06.410Z,34.12
2023-05-02T07:00:06.517Z,34.14
2023-05-02T07:01:06.576Z,34.13
2023-05-02T07:02:06.590Z,34.12
2023-05-02T07:03:06.665Z,34.11
2023-05-02T07:04:06.769Z,34.10
2023-05-02T07:05:06.763Z,34.09
2023-05-02T07:06:06.841Z,34.10
2023-05-02T07:07:06.855Z,34.07
2023-05-02T07:08:06.975Z,34.08
2023-05-02T07:09:06.996Z,34.07
2023-05-02T07:10:07.070Z,34.07
2023-05-02T07:11:07.100Z,34.09
2023-05-02T07:12:07.267Z,34.07
2023-05-02T07:13:07.215Z,34.09
2023-05-02T07:14:07.291Z,34.09
2023-05-02T07:15:07.303Z,34.07
2023-05-02T07:16:07.450Z,34.09
2023-05-02T07:17:07.458Z,34.09
2023-05-02T07:18:07.566Z,34.08
2023-05-02T07:19:07.588Z,34.06
2023-05-02T07:20:07.633Z,34.08
2023-05-02T07:21:07.693Z,34.07
2023-05-02T07:22:07.763Z,34.08
2023-05-02T07:23:07.810Z,34.08
2023-05-02T07:24:07.888Z,34.07
2023-05-02T07:25:07.918Z,34.09
2023-05-02T07:26:08.004Z,34.09
2023-05-02T07:27:08.029Z,34.09
2023-05-02T07:28:08.134Z,34.08
2023-05-02T07:29:08.148Z,34.07
2023-05-02T07:30:08.230Z,34.07
2023-05-02T07:31:08.309Z,34.11
2023-05-02T07:32:08.345Z,34.09
2023-05-02T07:33:08.471Z,34.10
2023-05-02T07:34:08.495Z,34.11
2023-05-02T07:35:08.538Z,34.12
2023-05-02T07:36:08.610Z,34.10
2023-05-02T07:37:08.669Z,34.13
2023-05-02T07:38:08.742Z,34.08
2023-05-02T07:39:08.806Z,34.10
2023-05-02T07:40:08.842Z,34.10
2023-05-02T07:41:08.894Z,34.11
2023-05-02T07:42:08.931Z,34.11
2023-05-02T07:43:11.084Z,34.14
2023-05-02T07:44:09.064Z,34.13
2023-05-02T07:45:09.134Z,34.12
2023-05-02T07:46:09.191Z,34.14
2023-05-02T07:47:09.197Z,34.12
2023-05-02T07:48:09.297Z,34.12
2023-05-02T07:49:09.353Z,34.14
2023-05-02T07:50:09.426Z,34.13
2023-05-02T07:51:09.490Z,34.13
2023-05-02T07:52:09.541Z,34.10
2023-05-02T07:53:09.589Z,34.11
2023-05-02T07:54:09.668Z,34.08
2023-05-02T07:55:09.715Z,34.11
2023-05-02T07:56:09.780Z,34.10
2023-05-02T07:57:09.818Z,34.08
2023-05-02T07:58:09.864Z,34.08
2023-05-02T07:59:09.960Z,34.08
2023-05-02T08:00:10.038Z,34.07
2023-05-02T08:01:10.076Z,34.09
2023-05-02T08:02:10.180Z,34.06
2023-05-02T08:03:10.233Z,34.06
2023-05-02T08:04:10.474Z,34.07
2023-05-02T08:05:10.448Z,34.06
2023-05-02T08:06:10.366Z,34.05
2023-05-02T08:07:10.405Z,34.07
2023-05-02T08:08:10.487Z,34.08
2023-05-02T08:09:10.516Z,34.07
2023-05-02T08:10:10.577Z,34.10
2023-05-02T08:11:10.644Z,34.06
2023-05-02T08:12:10.689Z,34.07
2023-05-02T08:13:10.765Z,34.09
2023-05-02T08:14:10.821Z,34.10
2023-05-02T08:15:10.863Z,34.11
2023-05-02T08:16:10.949Z,34.08
2023-05-02T08:17:10.985Z,34.10
2023-05-02T08:18:11.127Z,34.11
2023-05-02T08:19:11.104Z,34.13
2023-05-02T08:20:11.177Z,34.09
2023-05-02T08:21:11.223Z,34.10
2023-05-02T08:22:12.030Z,34.07
2023-05-02T08:23:11.346Z,34.10
2023-05-02T08:24:11.367Z,34.08
2023-05-02T08:25:11.449Z,34.10
2023-05-02T08:26:11.494Z,34.15
2023-05-02T08:27:11.568Z,34.16
2023-05-02T08:28:11.650Z,34.27
2023-05-02T08:29:11.784Z,34.23
2023-05-02T08:30:11.705Z,34.26
2023-05-02T08:31:11.824Z,34.26
2023-05-02T08:32:11.939Z,34.28
2023-05-02T08:33:12.117Z,34.29
2023-05-02T08:34:11.968Z,34.25
2023-05-02T08:35:12.001Z,34.24
2023-05-02T08:36:12.052Z,34.22
2023-05-02T08:37:12.193Z,34.21
2023-05-02T08:38:12.148Z,34.20
2023-05-02T08:39:12.199Z,34.22
2023-05-02T08:40:12.250Z,34.19
2023-05-02T08:41:12.295Z,34.22
2023-05-02T08:42:12.371Z,34.20
2023-05-02T08:43:12.604Z,34.20
2023-05-02T08:44:12.373Z,34.18
2023-05-02T08:45:13.935Z,34.21
2023-05-02T08:46:12.417Z,34.20
2023-05-02T08:47:12.642Z,34.17
2023-05-02T08:48:12.539Z,34.20
2023-05-02T08:49:12.547Z,34.16
2023-05-02T08:50:12.518Z,34.16
2023-05-02T08:51:12.587Z,34.13
2023-05-02T08:52:12.608Z,34.14
2023-05-02T08:53:12.638Z,34.15
2023-05-02T08:54:12.666Z,34.12
2023-05-02T08:55:12.697Z,34.12
2023-05-02T08:56:12.705Z,34.09
2023-05-02T08:57:12.725Z,34.09
2023-05-02T08:58:13.996Z,34.08
2023-05-02T08:59:12.891Z,34.11
2023-05-02T09:00:12.935Z,34.10
2023-05-02T09:01:12.995Z,34.08
2023-05-02T09:02:13.022Z,34.08
2023-05-02T09:03:13.131Z,34.09
2023-05-02T09:04:13.126Z,34.09
2023-05-02T09:05:13.134Z,34.08
2023-05-02T09:06:13.248Z,34.09
2023-05-02T09:07:13.234Z,34.06
2023-05-02T09:08:13.266Z,34.09
2023-05-02T09:09:13.317Z,34.08
2023-05-02T09:10:13.325Z,34.05
2023-05-02T09:11:13.383Z,34.07
2023-05-02T09:12:13.452Z,34.06
2023-05-02T09:13:13.505Z,34.08
2023-05-02T09:14:13.503Z,34.05
2023-05-02T09:15:13.554Z,34.07
2023-05-02T09:16:13.618Z,34.07
2023-05-02T09:17:13.782Z,34.06
2023-05-02T09:18:13.629Z,34.08
2023-05-02T09:19:13.648Z,34.08
2023-05-02T09:20:13.764Z,34.09
2023-05-02T09:21:13.689Z,34.13
2023-05-02T09:22:13.767Z,34.11
2023-05-02T09:23:13.783Z,34.11
2023-05-02T09:24:13.739Z,34.10
2023-05-02T09:25:13.803Z,34.12
2023-05-02T09:26:13.789Z,34.12
2023-05-02T09:27:13.837Z,34.13
2023-05-02T09:28:13.828Z,34.12
2023-05-02T09:29:13.872Z,34.12
2023-05-02T09:30:14.051Z,34.10
2023-05-02T09:31:15.225Z,34.10
2023-05-02T09:32:14.029Z,34.13
2023-05-02T09:33:14.102Z,34.13
2023-05-02T09:34:14.030Z,34.11
2023-05-02T09:35:14.064Z,34.09
2023-05-02T09:36:14.072Z,34.12
2023-05-02T09:37:14.106Z,34.12
2023-05-02T09:38:15.090Z,34.13
2023-05-02T09:39:14.138Z,34.10
2023-05-02T09:40:14.197Z,34.13
2023-05-02T09:41:14.197Z,34.08
2023-05-02T09:42:14.228Z,34.08
2023-05-02T09:43:14.594Z,34.10
2023-05-02T09:44:14.271Z,34.09
2023-05-02T09:45:14.267Z,34.06
2023-05-02T09:46:14.383Z,34.07
2023-05-02T09:47:14.350Z,34.05
2023-05-02T09:48:14.583Z,34.04
2023-05-02T09:49:14.363Z,34.06
2023-05-02T09:50:14.393Z,34.07
2023-05-02T09:51:14.451Z,34.05
2023-05-02T09:52:14.506Z,34.03
2023-05-02T09:53:14.585Z,34.02
2023-05-02T09:54:14.582Z,34.05
2023-05-02T09:55:14.622Z,34.05
2023-05-02T09:56:14.676Z,34.05
2023-05-02T09:57:14.713Z,34.04
2023-05-02T09:58:15.101Z,34.04
2023-05-02T09:59:14.779Z,34.03
2023-05-02T10:00:14.806Z,34.04
2023-05-02T10:01:14.924Z,34.03
2023-05-02T10:02:14.920Z,34.02
2023-05-02T10:03:14.975Z,34.00
2023-05-02T10:04:15.002Z,34.04
2023-05-02T10:05:14.982Z,34.01
2023-05-02T10:06:15.093Z,33.98
2023-05-02T10:07:15.111Z,33.98
2023-05-02T10:08:15.606Z,34.01
2023-05-02T10:09:19.638Z,33.99
2023-05-02T10:10:16.164Z,34.01
2023-05-02T10:11:15.137Z,33.99
2023-05-02T10:12:15.120Z,33.98
2023-05-02T10:13:15.600Z,34.01
2023-05-02T10:14:15.137Z,34.02
2023-05-02T10:15:15.152Z,34.00
2023-05-02T10:16:15.141Z,33.99
2023-05-02T10:17:15.113Z,34.01
2023-05-02T10:18:15.159Z,33.98
2023-05-02T10:19:15.098Z,33.99
2023-05-02T10:20:15.101Z,34.00
2023-05-02T10:21:15.067Z,33.97
2023-05-02T10:22:15.081Z,33.97
2023-05-02T10:23:15.109Z,33.96
2023-05-02T10:24:15.148Z,33.94
2023-05-02T10:25:15.168Z,33.96
2023-05-02T10:26:15.255Z,33.94
2023-05-02T10:27:15.239Z,33.97
2023-05-02T10:28:15.269Z,33.96
2023-05-02T10:29:15.319Z,33.92
2023-05-02T10:30:15.362Z,33.93
2023-05-02T10:31:15.472Z,33.93
2023-05-02T10:32:15.445Z,33.94
2023-05-02T10:33:15.479Z,33.94
2023-05-02T10:34:15.503Z,33.94
2023-05-02T10:35:15.549Z,33.93
2023-05-02T10:36:15.569Z,33.90
2023-05-02T10:37:15.621Z,33.91
2023-05-02T10:38:15.632Z,33.89
2023-05-02T10:39:15.660Z,33.88
2023-05-02T10:40:15.796Z,33.92
2023-05-02T10:41:15.708Z,33.91
2023-05-02T10:42:15.753Z,33.89
2023-05-02T10:43:15.820Z,33.89
2023-05-02T10:44:15.864Z,33.89
2023-05-02T10:45:15.853Z,33.90
2023-05-02T10:46:15.928Z,34.15
2023-05-02T10:47:15.941Z,34.19
2023-05-02T10:48:15.946Z,34.26
2023-05-02T10:49:15.970Z,34.40
2023-05-02T10:50:15.973Z,34.59
2023-05-02T10:51:16.011Z,34.71
2023-05-02T10:52:16.048Z,34.86
2023-05-02T10:53:16.090Z,35.06
2023-05-02T10:54:16.070Z,35.21
2023-05-02T10:55:16.080Z,35.35
2023-05-02T10:56:16.112Z,35.35
2023-05-02T10:57:16.148Z,35.17
2023-05-02T10:58:16.609Z,35.26
2023-05-02T10:59:16.186Z,35.35
2023-05-02T11:00:16.196Z,35.38
2023-05-02T11:01:16.303Z,35.37
2023-05-02T11:02:16.232Z,35.47
2023-05-02T11:03:16.633Z,35.42
2023-05-02T11:04:16.242Z,35.44
2023-05-02T11:05:16.300Z,35.46
2023-05-02T11:06:16.359Z,35.56
2023-05-02T11:07:16.322Z,35.59
2023-05-02T11:08:17.970Z,35.59
2023-05-02T11:09:16.355Z,35.67
2023-05-02T11:10:16.323Z,35.64
2023-05-02T11:11:16.387Z,35.79
2023-05-02T11:12:16.301Z,35.82
2023-05-02T11:13:16.322Z,35.70
2023-05-02T11:14:16.534Z,35.84
2023-05-02T11:15:16.298Z,35.88
2023-05-02T11:16:17.145Z,35.77
2023-05-02T11:17:16.304Z,35.83
2023-05-02T11:18:17.459Z,35.86
2023-05-02T11:19:16.863Z,35.89
2023-05-02T11:20:16.368Z,35.85
2023-05-02T11:21:16.370Z,35.88
2023-05-02T11:22:16.236Z,36.10
2023-05-02T11:23:16.755Z,35.99
2023-05-02T11:24:16.274Z,35.95
2023-05-02T11:25:16.561Z,36.00
2023-05-02T11:26:16.235Z,36.12
2023-05-02T11:27:16.784Z,36.04
2023-05-02T11:28:17.140Z,36.11
2023-05-02T11:29:16.821Z,36.02
2023-05-02T11:30:17.547Z,36.09
2023-05-02T11:31:16.376Z,36.06
2023-05-02T11:32:17.734Z,35.97
2023-05-02T11:33:17.330Z,36.17
2023-05-02T11:34:17.013Z,36.11
2023-05-02T11:35:16.166Z,36.04
2023-05-02T11:36:16.248Z,36.11
2023-05-02T11:37:16.274Z,36.09
2023-05-02T11:38:17.592Z,36.25
2023-05-02T11:39:16.229Z,36.23
2023-05-02T11:40:17.471Z,36.21
2023-05-02T11:41:16.410Z,36.17
2023-05-02T11:42:16.299Z,36.25
2023-05-02T11:43:16.467Z,36.09
2023-05-02T11:44:16.233Z,36.14
2023-05-02T11:45:16.231Z,36.07
2023-05-02T11:46:16.176Z,35.98
2023-05-02T11:47:16.111Z,35.96
2023-05-02T11:48:16.120Z,35.99
2023-05-02T11:49:16.111Z,35.91
2023-05-02T11:50:16.063Z,35.92
2023-05-02T11:51:16.080Z,35.89
2023-05-02T11:52:16.132Z,35.80
2023-05-02T11:53:16.080Z,35.84
2023-05-02T11:54:16.036Z,35.84
2023-05-02T11:55:16.051Z,35.86
2023-05-02T11:56:16.071Z,35.82
2023-05-02T11:57:16.049Z,35.86
2023-05-02T11:58:16.035Z,35.80
2023-05-02T11:59:16.051Z,35.79
2023-05-02T12:00:16.045Z,35.87
2023-05-02T12:01:16.090Z,35.76
2023-05-02T12:02:16.100Z,35.77
2023-05-02T12:03:16.078Z,35.78
2023-05-02T12:04:16.000Z,35.74
2023-05-02T12:05:16.071Z,35.70
2023-05-02T12:06:16.176Z,35.69
2023-05-02T12:07:16.149Z,35.67
2023-05-02T12:08:16.062Z,35.64
2023-05-02T12:09:16.072Z,35.70
2023-05-02T12:10:16.139Z,35.66
2023-05-02T12:11:16.165Z,35.65
2023-05-02T12:12:16.157Z,35.63
2023-05-02T12:13:16.166Z,35.65
2023-05-02T12:14:16.162Z,35.59
2023-05-02T12:15:16.234Z,35.60
2023-05-02T12:16:16.271Z,35.64
2023-05-02T12:17:16.244Z,35.61
2023-05-02T12:18:16.300Z,35.63
2023-05-02T12:19:16.298Z,35.53
2023-05-02T12:20:16.305Z,35.61
2023-05-02T12:21:16.283Z,35.62
2023-05-02T12:22:16.317Z,35.55
2023-05-02T12:23:16.675Z,35.57
2023-05-02T12:24:16.369Z,35.61
2023-05-02T12:25:16.402Z,35.57
2023-05-02T12:26:16.398Z,35.60
2023-05-02T12:27:16.399Z,35.52
2023-05-02T12:28:16.661Z,35.52
2023-05-02T12:29:16.465Z,35.49
2023-05-02T12:30:16.481Z,35.51
2023-05-02T12:31:16.532Z,35.48
2023-05-02T12:32:16.557Z,35.48
2023-05-02T12:33:16.652Z,35.49
2023-05-02T12:34:16.551Z,35.47
2023-05-02T12:35:16.570Z,35.46
2023-05-02T12:36:16.602Z,35.45
2023-05-02T12:37:16.623Z,35.40
2023-05-02T12:38:16.696Z,35.42
2023-05-02T12:39:17.171Z,35.43
2023-05-02T12:40:16.701Z,35.38
2023-05-02T12:41:16.705Z,35.38
2023-05-02T12:42:16.857Z,35.50
2023-05-02T12:43:16.751Z,35.45
2023-05-02T12:44:16.791Z,35.51
2023-05-02T12:45:16.790Z,35.46
2023-05-02T12:46:16.946Z,35.43
2023-05-02T12:47:16.891Z,35.38
2023-05-02T12:48:16.854Z,35.38
2023-05-02T12:49:16.894Z,35.34
2023-05-02T12:50:16.984Z,35.36
2023-05-02T12:51:16.912Z,35.33
2023-05-02T12:52:16.959Z,35.29
2023-05-02T12:53:16.951Z,35.31